Date,TemperatureHighF,TemperatureAvgF,TemperatureLowF,DewpointHighF,DewpointAvgF,DewpointLowF,HumidityHigh,HumidityAvg,HumidityLow,PressureMaxIn,PressureMinIn,WindSpeedMaxMPH,WindSpeedAvgMPH,GustSpeedMaxMPH,PrecipitationSumIn
2013-1-1,59,48,39,44,37,32,78,67,49,30.07,29.98,11,2,11,0.00
2013-1-2,65,50,38,42,35,31,78,59,39,30.03,29.92,16,4,16,0.00
2013-1-3,67,49,38,46,37,29,85,65,39,30.05,29.95,12,3,12,0.00
2013-1-4,66,52,43,50,42,35,90,70,39,30.07,29.98,12,2,12,0.00
2013-1-5,60,50,42,48,44,39,91,81,56,30.09,29.92,13,3,13,0.26
2013-1-6,54,48,42,49,44,38,94,86,71,30.01,29.87,12,2,12,0.47
2013-1-7,61,49,40,51,44,38,91,82,63,30.08,29.96,10,2,10,0.00
2013-1-8,67,54,43,52,46,41,91,76,57,30.03,29.92,8,1,8,0.01
2013-1-9,59,51,45,51,45,40,89,81,75,29.95,29.82,21,5,21,0.01
2013-1-10,54,45,39,46,37,34,89,74,50,30.01,29.88,22,6,22,0.00
2013-1-11,61,46,37,44,38,32,83,74,48,30.08,29.95,20,4,20,0.00
2013-1-12,58,45,39,43,35,28,83,68,40,30.06,29.95,11,2,11,0.00
2013-1-13,57,43,32,36,28,23,73,58,34,30.07,29.96,12,2,12,0.00
2013-1-14,54,42,33,28,23,18,67,48,28,30.22,30.02,9,3,9,0.00
2013-1-15,59,45,34,35,29,23,69,54,34,30.29,30.20,12,3,12,0.00
2013-1-16,66,50,39,44,34,28,68,55,34,30.23,30.04,9,2,9,0.00
2013-1-17,72,57,45,44,36,32,66,48,33,30.05,29.92,12,1,12,0.00
2013-1-18,75,58,48,44,36,31,66,45,26,30.01,29.92,12,2,12,0.00
2013-1-19,76,58,45,46,38,31,65,48,26,30.02,29.94,7,3,8,0.00
2013-1-20,74,58,47,43,36,28,60,43,26,30.01,29.89,11,3,11,0.00
2013-1-21,75,58,46,42,34,27,57,41,23,29.97,29.85,15,3,15,0.00
2013-1-22,71,58,50,41,34,27,50,41,26,29.91,29.82,14,4,14,0.00
2013-1-23,64,57,53,48,38,32,78,52,33,29.90,29.78,13,4,13,0.01
2013-1-24,60,55,51,54,50,46,87,82,75,30.00,29.84,7,1,7,0.07
2013-1-25,73,60,54,61,54,51,92,81,62,30.00,29.84,15,2,15,0.00
2013-1-26,60,54,45,54,48,39,93,81,65,29.92,29.81,22,5,22,0.00
2013-1-27,62,49,42,48,41,36,87,73,50,29.99,29.90,13,3,13,0.00
2013-1-28,60,48,39,47,41,34,89,77,58,30.10,29.97,15,4,15,0.00
2013-1-29,60,50,41,49,43,38,90,79,61,30.16,30.07,10,2,10,0.00
2013-1-30,69,52,42,51,44,38,88,75,51,30.16,30.07,11,3,11,0.00
2013-1-31,73,55,42,52,45,37,87,70,43,30.09,29.97,12,2,12,0.00
2013-2-1,76,54,47,53,45,40,89,74,39,30.05,29.93,14,3,14,0.00
2013-2-2,59,51,47,51,47,44,94,86,75,30.09,30.03,6,1,6,0.00
2013-2-3,63,52,45,52,47,42,94,82,64,30.06,29.96,11,2,11,0.00
2013-2-4,64,51,42,54,46,37,93,82,66,29.99,29.88,14,2,14,0.01
2013-2-5,58,51,46,50,46,43,92,85,74,29.96,29.88,6,2,6,0.00
2013-2-6,46,44,42,44,41,39,93,91,90,29.99,29.94,4,2,4,0.01
2013-2-7,56,48,44,46,41,39,88,78,67,29.89,29.84,14,4,14,0.05
2013-2-8,55,47,42,47,42,38,91,82,60,29.84,29.75,18,4,18,0.06
2013-2-9,62,47,36,49,40,33,91,77,44,29.92,29.80,13,4,13,0.01
2013-2-10,64,48,37,46,39,32,85,74,41,29.93,29.83,11,4,11,0.00
2013-2-11,67,50,38,47,40,34,89,70,39,30.06,29.87,15,4,15,0.00
2013-2-12,66,49,39,48,41,34,90,75,47,30.17,30.05,13,4,13,0.00
2013-2-13,64,49,38,52,44,36,95,83,61,30.15,30.03,14,4,14,0.01
2013-2-14,75,55,40,51,45,38,94,72,39,30.04,29.94,11,3,11,0.00
2013-2-15,82,62,49,50,42,38,71,51,23,30.05,29.99,13,4,13,0.00
2013-2-16,80,60,50,52,42,36,88,54,24,30.03,29.87,13,4,13,0.00
2013-2-17,65,52,46,51,46,42,93,81,58,29.89,29.80,10,3,10,0.00
2013-2-18,55,50,47,48,44,40,92,79,64,29.88,29.80,15,4,15,0.00
2013-2-19,52,46,37,45,40,34,88,82,75,29.81,29.58,18,4,18,0.16
2013-2-20,62,47,37,46,40,32,88,77,52,29.89,29.64,17,4,17,0.01
2013-2-21,63,50,42,47,42,38,90,75,46,30.00,29.87,14,3,14,0.00
2013-2-22,65,50,39,48,42,35,88,74,43,30.07,29.99,14,4,14,0.00
2013-2-23,63,51,45,49,44,37,91,77,54,30.07,29.94,20,4,20,0.00
2013-2-24,64,51,43,42,36,29,79,58,30,30.07,29.96,11,4,11,0.00
2013-2-25,65,50,38,49,40,31,86,68,39,30.09,29.99,9,4,9,0.00
2013-2-26,70,53,42,47,41,34,91,68,32,30.02,29.93,12,3,12,0.00
2013-2-27,68,52,41,47,41,33,83,67,44,30.18,30.01,13,4,13,0.00
2013-2-28,69,54,44,56,47,41,93,78,52,30.26,30.18,13,2,13,0.00
2013-3-1,81,61,45,59,50,43,94,71,37,30.23,30.02,11,2,11,0.00
2013-3-2,79,60,51,56,48,45,88,67,45,30.05,29.91,13,5,13,0.00
2013-3-3,64,54,50,54,49,46,90,82,69,29.94,29.88,12,3,12,0.00
2013-3-4,65,52,45,53,46,40,88,79,59,29.97,29.88,12,2,12,0.00
2013-3-5,64,52,46,49,44,39,88,72,55,29.91,29.74,25,6,25,0.02
2013-3-6,61,52,46,52,45,41,90,76,55,29.91,29.74,27,5,27,0.28
2013-3-7,66,50,42,47,43,38,90,77,45,29.82,29.66,15,3,15,0.23
2013-3-8,60,50,45,51,45,42,91,82,68,29.91,29.63,25,6,25,0.02
2013-3-9,66,54,47,52,46,42,89,73,55,30.13,29.92,14,4,14,0.00
2013-3-10,67,52,42,53,45,38,91,78,55,30.15,30.06,14,3,14,0.00
2013-3-11,71,54,41,54,46,38,93,76,51,30.07,29.93,16,3,16,0.00
2013-3-12,69,54,46,56,48,44,94,81,60,29.95,29.88,13,2,13,0.00
2013-3-13,83,57,43,61,50,41,95,78,45,29.95,29.88,17,3,17,0.00
2013-3-14,69,55,46,57,49,44,94,80,64,29.97,29.89,13,2,13,0.00
2013-3-15,72,57,47,57,49,44,92,78,50,29.95,29.86,13,3,13,0.00
2013-3-16,73,57,50,58,50,46,91,79,56,29.91,29.85,18,4,18,0.00
2013-3-17,71,57,47,56,48,43,91,74,51,29.95,29.87,14,5,14,0.00
2013-3-18,67,54,44,53,47,40,91,78,58,29.94,29.84,18,3,18,0.00
2013-3-19,76,56,48,52,46,41,87,72,34,29.99,29.86,13,3,13,0.04
2013-3-20,71,59,52,55,51,43,89,76,41,29.94,29.89,8,3,8,0.00
2013-3-21,67,56,48,52,48,44,89,75,54,29.93,29.82,14,4,14,0.02
2013-3-22,71,56,44,51,43,39,90,66,36,29.89,29.82,11,3,11,0.00
2013-3-23,75,56,45,52,42,36,84,62,25,29.92,29.86,14,3,14,0.00
2013-3-24,69,54,43,50,45,41,93,73,47,29.90,29.80,12,3,12,0.00
2013-3-25,64,55,47,53,47,42,91,76,60,29.83,29.79,11,3,11,0.00
2013-3-26,68,56,47,51,47,42,87,71,51,29.82,29.76,14,3,14,0.00
2013-3-27,57,54,50,53,50,45,89,85,75,29.84,29.76,9,2,9,0.00
2013-3-28,74,59,52,60,53,48,90,81,58,29.90,29.82,16,3,16,0.01
2013-3-29,80,58,47,61,51,45,95,81,47,29.89,29.86,22,4,22,0.00
2013-3-30,71,58,52,57,52,49,91,81,55,29.90,29.79,21,4,21,0.03
2013-3-31,76,61,52,55,52,49,92,75,47,29.88,29.79,16,5,16,0.02
2013-4-1,68,59,54,60,53,50,91,80,63,29.97,29.86,16,4,16,0.07
2013-4-2,72,59,51,58,52,48,91,80,58,29.98,29.92,16,3,16,0.02
2013-4-3,54,53,52,50,49,48,90,88,86,29.87,29.84,5,1,5,0.00
2013-4-4,67,57,51,60,53,49,93,86,76,29.94,29.84,14,4,14,0.08
2013-4-5,70,61,55,61,54,51,92,78,61,30.00,29.93,17,4,17,0.00
2013-4-6,72,61,54,58,53,50,88,77,51,30.01,29.95,16,4,16,0.00
2013-4-7,72,60,53,57,52,48,89,76,54,29.99,29.71,16,4,16,0.00
2013-4-8,69,56,48,51,43,34,91,64,29,29.80,29.65,35,11,35,0.04
2013-4-9,77,60,45,54,44,34,90,61,22,29.88,29.79,18,4,18,0.00
2013-4-10,67,54,48,52,46,40,85,74,58,29.91,29.86,9,3,9,0.00
2013-4-11,72,59,49,54,49,44,89,73,52,29.91,29.70,14,4,14,0.01
2013-4-12,72,57,47,56,48,43,88,74,54,29.74,29.67,13,3,13,0.00
2013-4-13,71,57,48,55,48,42,91,73,52,29.73,29.67,12,4,12,0.00
2013-4-14,78,58,44,53,46,41,89,67,38,29.75,29.69,13,4,13,0.00
2013-4-15,65,53,45,49,43,36,89,70,47,29.77,29.68,39,11,39,0.04
2013-4-16,67,53,41,49,40,35,87,65,39,29.93,29.77,24,6,24,0.00
2013-4-17,71,57,42,47,40,29,87,56,23,30.04,29.92,22,5,22,0.00
2013-4-18,78,59,44,48,42,35,84,57,28,30.06,30.01,18,4,18,0.00
2013-4-19,80,61,47,56,47,41,86,62,35,30.05,29.89,14,3,14,0.00
2013-4-20,74,61,49,58,50,44,90,68,47,29.91,29.81,15,3,15,0.00
2013-4-21,88,64,47,60,49,41,88,61,23,29.83,29.74,17,3,17,0.00
2013-4-22,72,58,52,53,49,43,88,72,48,29.77,29.70,17,5,17,0.00
2013-4-23,64,55,50,53,49,46,90,81,65,29.77,29.68,18,5,18,0.00
2013-4-24,64,56,50,52,50,47,89,80,65,29.78,29.65,21,6,21,0.00
2013-4-25,68,58,51,52,50,47,85,76,54,29.95,29.77,16,4,16,0.00
2013-4-26,72,58,48,57,49,44,88,73,54,30.03,29.92,14,3,14,0.00
2013-4-27,72,59,51,58,50,46,90,74,55,30.02,29.89,15,3,15,0.00
2013-4-28,69,58,49,56,50,46,89,75,57,29.89,29.70,12,3,12,0.00
2013-4-29,83,64,50,61,52,46,89,67,45,29.70,29.60,15,3,15,0.00
2013-4-30,74,62,49,56,50,46,88,67,49,29.65,29.60,12,3,12,0.00
2013-5-1,68,58,50,54,50,46,90,76,56,29.90,29.65,16,5,16,0.00
2013-5-2,94,68,53,58,50,45,87,55,28,29.92,29.88,16,4,16,0.00
2013-5-3,92,69,53,53,45,38,77,45,16,29.90,29.62,13,2,13,0.00
2013-5-4,71,57,51,56,50,45,85,77,55,29.62,29.43,25,7,25,0.00
2013-5-5,73,63,49,51,49,46,89,63,43,29.60,29.45,26,12,26,0.00
2013-5-6,68,62,56,54,51,49,81,69,56,29.76,29.60,16,6,16,0.00
2013-5-7,76,64,55,58,52,48,78,66,45,29.87,29.75,14,4,14,0.00
2013-5-8,67,61,54,54,51,48,79,71,62,29.95,29.86,16,4,16,0.00
2013-5-9,70,60,53,55,51,48,86,71,56,29.99,29.91,16,4,16,0.00
2013-5-10,75,60,52,58,52,48,89,75,53,29.99,29.93,11,3,11,0.00
2013-5-11,82,62,52,62,53,49,93,75,52,29.95,29.88,13,4,13,0.00
2013-5-12,79,63,52,63,54,49,93,73,51,29.93,29.84,11,2,11,0.00
2013-5-13,79,63,53,59,54,49,92,73,49,29.90,29.80,9,3,9,0.01
2013-5-14,69,60,53,54,51,47,85,73,58,29.88,29.78,12,4,12,0.00
2013-5-15,72,61,51,55,50,46,85,69,49,29.90,29.85,12,4,12,0.00
2013-5-16,74,60,52,60,52,48,89,77,56,29.86,29.80,12,3,12,0.00
2013-5-17,70,60,51,55,50,45,91,72,52,29.89,29.80,14,3,14,0.00
2013-5-18,76,61,48,56,50,44,90,69,46,29.95,29.89,11,4,11,0.00
2013-5-19,80,63,51,58,51,46,91,68,43,29.93,29.79,13,4,13,0.00
2013-5-20,84,65,50,59,51,46,90,64,41,29.81,29.74,13,3,13,0.00
2013-5-21,76,61,51,56,49,42,89,67,45,29.82,29.74,14,4,14,0.00
2013-5-22,72,58,47,49,44,41,82,60,38,29.80,29.71,20,6,20,0.00
2013-5-23,68,58,47,48,45,41,82,63,45,29.83,29.76,13,4,13,0.00
2013-5-24,70,56,45,52,46,42,90,71,49,29.83,29.78,13,5,13,0.00
2013-5-25,66,56,47,50,47,42,88,72,56,29.89,29.81,15,4,15,0.00
2013-5-26,73,60,49,58,52,46,91,75,52,29.96,29.89,14,4,14,0.00
2013-5-27,72,62,54,58,53,49,86,73,51,29.95,29.84,14,4,14,0.00
2013-5-28,77,63,54,60,55,49,89,75,56,29.84,29.74,12,4,12,0.00
2013-5-29,76,64,53,58,53,48,89,68,49,29.78,29.71,20,6,20,0.00
2013-5-30,82,62,49,56,50,45,89,67,41,29.81,29.74,10,3,10,0.00
2013-5-31,80,63,48,57,50,45,89,65,45,29.81,29.74,13,4,13,0.00
2013-6-1,81,64,50,59,51,46,89,66,45,29.76,29.61,9,3,9,0.00
2013-6-2,70,58,52,55,51,47,92,77,58,29.62,29.58,8,4,8,0.00
2013-6-3,64,58,54,54,51,48,88,79,68,29.69,29.57,18,5,18,0.00
2013-6-4,67,59,54,55,52,49,84,77,65,29.79,29.67,15,5,15,0.00
2013-6-5,67,58,52,55,52,49,89,78,61,29.81,29.77,13,3,13,0.00
2013-6-6,68,59,54,55,52,49,86,77,61,29.78,29.71,16,4,16,0.00
2013-6-7,76,59,53,60,52,49,89,79,55,29.73,29.58,13,3,13,0.00
2013-6-8,66,58,53,57,54,50,94,87,69,29.66,29.57,19,6,19,0.00
2013-6-9,64,60,57,58,55,54,92,86,79,29.69,29.63,17,5,17,0.00
2013-6-10,73,63,57,58,54,52,85,74,54,29.77,29.67,16,4,16,0.00
2013-6-11,75,64,55,60,55,50,83,73,56,29.78,29.72,13,4,13,0.00
2013-6-12,76,62,53,59,53,48,92,72,50,29.84,29.73,10,4,10,0.00
2013-6-13,74,62,51,57,51,47,90,69,48,29.89,29.82,13,4,13,0.00
2013-6-14,78,63,50,60,51,47,90,69,46,29.81,29.66,13,4,13,0.00
2013-6-15,66,58,54,53,50,48,84,77,65,29.83,29.67,10,4,10,0.00
2013-6-16,78,63,53,58,53,49,88,71,49,29.90,29.82,10,3,10,0.00
2013-6-17,82,66,52,60,55,49,92,70,48,29.89,29.84,10,4,10,0.00
2013-6-18,73,62,54,56,52,48,86,71,51,29.86,29.77,27,7,27,0.00
2013-6-19,78,64,51,58,52,48,91,67,44,29.85,29.80,15,4,15,0.00
2013-6-20,78,63,50,57,51,46,87,66,45,29.82,29.77,13,4,13,0.00
2013-6-21,78,63,51,58,52,47,90,69,48,29.80,29.75,12,4,12,0.00
2013-6-22,78,63,52,60,53,49,89,71,48,29.75,29.68,14,4,14,0.00
2013-6-23,72,63,56,60,56,52,88,80,65,29.71,29.64,8,3,8,0.00
2013-6-24,65,61,58,61,58,56,92,88,82,29.74,29.61,14,3,14,0.01
2013-6-25,80,66,58,65,60,56,94,82,60,29.80,29.73,13,5,13,0.00
2013-6-26,83,72,61,68,62,58,91,72,56,29.84,29.77,18,5,18,0.00
2013-6-27,85,73,62,67,60,54,81,63,50,29.85,29.80,10,3,10,0.00
2013-6-28,84,70,57,64,57,52,86,66,48,29.82,29.72,13,3,13,0.00
2013-6-29,86,72,57,64,57,52,85,63,44,29.74,29.64,10,2,10,0.00
2013-6-30,82,69,56,63,57,52,89,67,48,29.67,29.59,9,3,9,0.00
2013-7-1,80,67,56,64,56,52,87,71,50,29.69,29.61,12,4,12,0.00
2013-7-2,82,66,58,63,57,54,88,74,52,29.76,29.66,16,4,16,0.00
2013-7-3,80,65,59,66,57,55,88,76,57,29.75,29.60,14,4,14,0.00
2013-7-4,77,66,58,60,57,53,89,74,56,29.61,29.55,14,5,14,0.00
2013-7-5,68,61,55,57,54,51,88,76,66,29.66,29.58,9,4,9,0.00
2013-7-6,70,61,56,57,53,51,85,75,60,29.64,29.60,9,3,9,0.00
2013-7-7,70,61,56,56,54,51,84,76,60,29.69,29.61,16,5,16,0.00
2013-7-8,76,63,57,60,54,52,85,74,53,29.79,29.68,13,4,13,0.00
2013-7-9,79,65,55,61,56,51,90,72,54,29.81,29.77,12,4,12,0.00
2013-7-10,75,63,56,61,55,51,86,75,60,29.81,29.74,12,4,12,0.00
2013-7-11,70,62,58,57,53,52,81,75,61,29.77,29.73,13,3,13,0.00
2013-7-12,75,62,56,59,54,50,83,73,56,29.75,29.71,13,4,13,0.00
2013-7-13,72,63,55,58,54,50,84,73,57,29.78,29.72,12,3,12,0.00
2013-7-14,72,62,55,59,54,51,87,75,58,29.81,29.74,13,4,13,0.00
2013-7-15,67,60,56,55,53,50,81,77,65,29.74,29.67,13,4,13,0.00
2013-7-16,72,63,58,58,55,53,87,75,57,29.83,29.69,13,4,13,0.01
2013-7-17,75,66,59,60,56,53,85,71,55,29.88,29.82,13,4,13,0.00
2013-7-18,65,62,60,56,54,53,78,75,72,29.86,29.78,6,2,6,0.00
2013-7-19,71,61,56,58,54,51,89,78,63,29.77,29.68,10,3,10,0.00
2013-7-20,67,59,54,57,53,51,89,81,69,29.68,29.61,11,3,11,0.00
2013-7-21,69,61,58,56,54,52,83,77,64,29.71,29.59,14,4,14,0.00
2013-7-22,72,64,57,60,57,53,85,78,66,29.76,29.69,14,4,14,0.00
2013-7-23,81,66,60,64,58,55,82,74,56,29.81,29.76,14,4,14,0.00
2013-7-24,75,65,59,61,57,54,85,76,59,29.79,29.73,12,4,12,0.00
2013-7-25,69,63,58,58,55,53,84,77,66,29.84,29.74,13,4,13,0.00
2013-7-26,70,62,58,58,55,53,88,79,65,29.90,29.83,13,4,13,0.00
2013-7-27,72,62,58,60,56,53,87,79,63,29.84,29.70,12,4,12,0.00
2013-7-28,64,60,57,57,55,53,87,82,75,29.71,29.66,12,3,12,0.00
2013-7-29,67,61,57,58,55,53,89,81,71,29.83,29.68,16,6,16,0.00
2013-7-30,72,63,59,58,55,54,84,76,61,29.90,29.82,15,4,15,0.00
2013-7-31,68,62,56,56,54,52,86,75,62,29.90,29.84,10,4,10,0.00
2013-8-1,77,64,55,59,55,52,89,73,50,29.88,29.77,12,4,12,0.00
2013-8-2,73,62,54,59,54,51,90,77,59,29.79,29.75,10,4,10,0.00
2013-8-3,69,61,56,57,54,52,86,78,64,29.80,29.74,13,4,13,0.00
2013-8-4,67,61,57,57,54,51,83,77,68,29.82,29.78,12,3,12,0.00
2013-8-5,73,61,56,61,54,52,89,79,61,29.82,29.77,13,3,13,0.00
2013-8-6,67,61,56,57,55,52,90,79,67,29.86,29.77,11,4,11,0.00
2013-8-7,72,64,58,60,57,54,88,77,61,29.90,29.84,13,4,13,0.01
2013-8-8,73,65,60,61,57,54,85,76,61,29.83,29.76,13,4,13,0.00
2013-8-9,73,64,58,59,56,53,84,75,59,29.80,29.72,13,3,13,0.00
2013-8-10,76,65,58,62,57,54,89,76,58,29.83,29.78,14,4,14,0.00
2013-8-11,73,64,59,61,57,54,86,78,64,29.82,29.76,12,2,12,0.01
2013-8-12,72,64,58,61,56,54,88,78,65,29.80,29.74,11,3,11,0.00
2013-8-13,75,65,56,62,56,53,89,75,62,29.78,29.74,13,3,13,0.00
2013-8-14,78,66,58,62,57,53,87,76,55,29.78,29.70,11,3,11,0.00
2013-8-15,82,69,58,66,60,54,90,74,55,29.74,29.71,12,2,12,0.00
2013-8-16,80,69,62,66,59,56,81,73,58,29.77,29.72,13,3,13,0.00
2013-8-17,77,66,58,64,58,55,88,77,60,29.79,29.70,10,3,10,0.00
2013-8-18,83,66,60,66,58,55,89,78,54,29.71,29.59,13,3,13,0.00
2013-8-19,74,63,57,62,57,54,90,82,63,29.72,29.63,21,5,21,0.00
2013-8-20,66,61,57,58,56,54,90,83,74,29.71,29.66,15,5,15,0.00
2013-8-21,72,64,58,58,56,54,86,74,60,29.73,29.67,18,4,18,0.00
2013-8-22,74,65,54,58,56,51,89,74,54,29.76,29.70,15,4,15,0.00
2013-8-23,76,64,58,63,56,54,88,77,61,29.72,29.62,13,4,13,0.00
2013-8-24,76,66,58,63,58,54,89,76,60,29.69,29.64,12,3,12,0.00
2013-8-25,87,68,60,68,60,56,87,75,51,29.75,29.67,17,4,17,0.00
2013-8-26,75,68,61,62,59,53,84,74,61,29.78,29.69,13,3,13,0.00
2013-8-27,79,66,55,63,57,51,92,73,53,29.69,29.63,13,3,13,0.00
2013-8-28,76,67,61,63,60,56,87,78,63,29.73,29.64,13,4,13,0.00
2013-8-29,79,68,59,67,60,56,91,78,63,29.82,29.74,12,3,12,0.01
2013-8-30,83,70,59,67,60,56,91,71,55,29.81,29.70,12,3,12,0.00
2013-8-31,80,68,58,64,58,55,87,72,53,29.75,29.70,9,3,9,0.00
2013-9-1,80,69,62,63,59,55,85,71,53,29.72,29.68,14,4,14,0.00
2013-9-2,82,70,63,66,61,58,86,75,54,29.73,29.68,13,3,13,0.00
2013-9-3,84,70,61,65,59,55,85,69,45,29.77,29.71,14,3,14,0.00
2013-9-4,81,69,60,63,58,54,85,69,50,29.81,29.73,15,4,15,0.00
2013-9-5,82,68,57,64,58,54,89,71,50,29.81,29.73,10,3,10,0.00
2013-9-6,87,70,55,64,56,50,87,64,46,29.78,29.62,15,3,15,0.00
2013-9-7,84,67,58,62,56,51,81,69,47,29.67,29.61,16,4,16,0.00
2013-9-8,76,66,60,62,57,54,85,75,56,29.67,29.58,13,3,13,0.00
2013-9-9,78,65,60,64,57,55,84,77,58,29.60,29.54,13,3,13,0.00
2013-9-10,69,62,58,59,57,55,90,83,70,29.70,29.56,22,7,22,0.00
2013-9-11,76,67,62,61,58,56,84,73,57,29.79,29.71,11,4,11,0.00
2013-9-12,76,68,62,63,59,57,84,73,60,29.76,29.69,13,3,13,0.00
2013-9-13,76,65,58,64,58,54,91,78,62,29.69,29.57,11,3,11,0.00
2013-9-14,77,65,58,62,57,54,90,77,56,29.61,29.54,8,3,8,0.00
2013-9-15,76,67,58,62,58,54,88,74,56,29.64,29.57,12,3,12,0.00
2013-9-16,78,67,56,64,58,51,87,74,57,29.67,29.60,11,3,11,0.00
2013-9-17,77,64,56,62,56,52,91,76,56,29.70,29.63,21,5,21,0.00
2013-9-18,79,65,54,61,54,50,89,71,49,29.68,29.62,16,4,16,0.00
2013-9-19,85,67,53,59,54,48,84,64,40,29.63,29.55,15,3,15,0.00
2013-9-20,76,65,54,62,57,50,89,77,62,29.67,29.57,14,3,14,0.00
2013-9-21,77,66,60,63,59,56,90,78,56,29.70,29.61,18,4,18,0.02
2013-9-22,77,66,57,61,56,52,85,72,53,29.79,29.70,16,3,16,0.00
2013-9-23,76,66,57,61,57,52,85,72,53,29.78,29.69,15,2,15,0.00
2013-9-24,79,67,58,62,56,51,85,69,50,29.77,29.69,21,4,21,0.00
2013-9-25,68,61,53,52,50,47,82,67,56,29.73,29.61,22,8,22,0.00
2013-9-26,75,60,50,53,49,45,88,68,36,29.76,29.61,14,4,14,0.00
2013-9-27,78,61,49,50,45,41,78,58,31,29.84,29.76,14,4,14,0.00
2013-9-28,86,69,56,52,46,38,77,47,23,29.87,29.79,14,3,14,0.00
2013-9-29,80,66,54,61,54,46,84,66,43,29.89,29.84,13,4,13,0.00
2013-9-30,83,68,59,64,59,54,85,73,51,29.87,29.76,16,4,16,0.00
2013-10-1,73,64,54,59,54,49,84,71,52,29.81,29.72,10,3,10,0.00
2013-10-2,71,60,52,58,51,48,90,75,57,29.79,29.71,10,3,10,0.00
2013-10-3,73,61,50,54,48,46,85,66,42,29.82,29.71,11,3,11,0.00
2013-10-4,86,68,51,46,39,32,71,39,16,29.86,29.72,9,2,9,0.00
2013-10-5,92,72,59,43,33,26,38,26,10,29.95,29.86,15,5,15,0.00
2013-10-6,92,71,59,42,35,28,34,28,15,29.88,29.79,14,4,14,0.00
2013-10-7,66,61,58,34,33,31,40,34,30,29.78,29.74,5,2,5,0.00
2013-10-9,64,60,54,51,48,46,75,65,60,29.56,29.46,10,2,10,0.00
2013-10-10,66,57,50,52,49,45,86,74,57,29.81,29.57,18,4,18,0.00
2013-10-11,69,59,53,54,49,47,81,71,57,29.87,29.78,13,3,13,0.00
2013-10-12,68,57,50,54,49,46,88,77,59,29.79,29.73,11,3,11,0.00
2013-10-13,71,58,50,57,51,46,91,77,57,29.84,29.73,11,3,11,0.00
2013-10-14,85,64,51,52,46,43,84,57,28,29.87,29.76,13,3,13,0.00
2013-10-15,88,69,54,46,42,38,58,40,18,29.80,29.69,12,2,12,0.00
2013-10-16,85,68,58,47,41,36,47,38,21,29.84,29.76,16,5,16,0.00
2013-10-17,82,66,55,52,41,34,56,41,25,29.84,29.75,13,3,13,0.00
2013-10-18,84,65,54,53,45,34,65,50,27,29.82,29.77,11,2,11,0.00
2013-10-19,77,60,51,52,48,42,82,66,41,29.83,29.79,11,2,11,0.00
2013-10-20,68,58,48,53,49,45,88,73,57,29.82,29.72,11,2,11,0.00
2013-10-21,68,57,50,53,49,45,86,77,59,29.78,29.71,14,2,14,0.00
2013-10-22,68,57,51,54,50,46,88,77,58,29.79,29.73,12,2,12,0.00
2013-10-23,68,57,51,55,50,46,86,78,64,29.76,29.71,14,2,14,0.00
2013-10-24,63,56,49,54,50,46,88,81,70,29.89,29.75,6,1,6,0.00
2013-10-25,70,58,49,56,51,46,89,77,59,29.93,29.86,11,3,11,0.00
2013-10-26,72,59,49,57,52,47,94,78,56,29.91,29.81,11,3,11,0.00
2013-10-27,60,56,54,53,50,48,88,81,75,29.82,29.56,15,4,15,0.00
2013-10-28,63,58,54,52,50,48,85,77,64,29.66,29.49,20,10,20,0.00
2013-10-29,68,58,51,54,50,47,89,75,51,29.82,29.65,12,3,12,0.00
2013-10-30,68,57,47,53,48,44,88,74,53,29.90,29.82,12,3,12,0.00
2013-10-31,76,59,48,52,48,43,83,68,38,29.93,29.82,12,2,12,0.00
2013-11-1,81,62,52,50,46,42,79,58,30,29.89,29.79,12,4,12,0.00
2013-11-2,68,57,51,53,48,40,88,71,53,29.79,29.70,11,3,11,0.00
2013-11-3,69,57,49,49,46,40,88,68,38,29.79,29.68,12,3,12,0.00
2013-11-4,69,58,49,47,44,39,78,61,37,29.82,29.67,12,2,12,0.00
2013-11-5,74,57,44,48,41,34,78,57,28,29.98,29.82,10,3,10,0.00
2013-11-6,81,62,51,46,38,32,69,43,19,30.00,29.91,9,2,9,0.00
2013-11-7,74,60,52,49,40,31,74,49,28,29.94,29.85,12,3,12,0.00
2013-11-8,74,57,47,52,46,39,83,67,41,29.85,29.72,10,2,10,0.00
2013-11-9,74,58,50,54,49,41,88,73,38,29.83,29.73,16,4,16,0.00
2013-11-10,70,57,51,60,50,46,88,77,57,29.90,29.82,12,3,12,0.00
2013-11-11,70,58,49,52,49,46,91,75,46,29.93,29.85,9,3,9,0.00
2013-11-12,73,61,54,55,51,48,84,71,53,30.02,29.92,10,2,10,0.00
2013-11-13,75,60,50,58,51,46,87,74,49,30.01,29.89,12,3,12,0.00
2013-11-14,65,56,52,56,51,48,88,82,71,29.89,29.68,12,3,12,0.00
2013-11-15,65,55,49,53,48,45,91,80,57,29.68,29.53,10,3,10,0.00
2013-11-16,68,57,49,54,49,45,90,77,51,29.72,29.56,13,3,13,0.00
2013-11-17,66,56,48,54,48,44,88,77,60,29.88,29.79,11,3,11,0.00
2013-11-18,63,53,46,52,47,43,90,79,60,29.92,29.85,10,3,10,0.00
2013-11-19,66,56,50,54,49,46,86,79,64,29.89,29.75,8,2,8,0.02
2013-11-20,66,58,55,59,55,53,92,88,76,29.75,29.63,10,4,10,0.02
2013-11-21,64,57,51,53,48,35,91,74,51,29.73,29.64,10,2,10,0.00
2013-11-22,67,55,49,39,33,27,59,44,23,29.79,29.68,7,3,7,0.00
2013-11-23,69,57,49,52,44,33,79,62,41,29.87,29.73,8,3,8,0.00
2013-11-24,72,56,46,50,43,40,82,65,41,30.01,29.87,10,3,10,0.00
2013-11-25,73,58,46,48,44,38,76,60,39,30.07,30.00,8,2,8,0.00
2013-11-26,73,59,50,48,43,40,75,58,37,30.01,29.79,8,2,8,0.00
2013-11-27,69,58,53,52,46,43,77,65,44,29.79,29.60,12,4,12,0.00
2013-11-28,71,59,51,48,45,42,75,61,43,29.85,29.62,10,2,10,0.00
2013-11-29,75,59,48,51,45,41,78,63,31,29.99,29.84,10,3,10,0.00
2013-11-30,66,56,47,53,47,40,88,71,50,30.03,29.96,11,2,11,0.00
2013-12-1,77,59,46,53,46,40,87,64,34,30.09,29.96,8,2,8,0.00
2013-12-2,67,55,47,52,46,39,91,73,51,30.00,29.76,9,2,9,0.00
2013-12-3,60,52,42,51,43,34,90,70,49,29.76,29.60,23,6,23,0.00
2013-12-4,58,46,39,36,31,25,71,57,32,29.83,29.69,10,2,10,0.00
2013-12-5,56,42,31,33,28,22,72,57,34,29.93,29.82,10,3,10,0.00
2013-12-6,57,45,32,38,31,21,72,58,44,29.96,29.76,8,4,8,0.04
2013-12-7,53,47,38,47,35,26,88,65,40,30.00,29.68,19,7,19,0.04
2013-12-8,50,41,34,33,28,24,74,61,42,30.04,29.95,5,1,5,0.00
2013-12-9,56,42,31,30,25,21,69,52,30,30.13,30.05,10,2,10,0.00
2013-12-10,63,48,36,32,26,22,59,44,28,30.13,29.92,7,2,7,0.00
2013-12-11,68,52,42,38,29,24,52,42,24,29.95,29.89,8,2,8,0.00
2013-12-12,67,52,42,47,35,24,78,55,28,30.01,29.92,9,3,9,0.00
2013-12-13,64,51,36,46,40,32,86,66,43,30.08,29.98,9,2,9,0.00
2013-12-14,72,55,40,46,35,29,69,49,29,30.13,30.03,11,2,11,0.00
2013-12-15,74,58,49,40,34,28,51,42,26,30.09,29.96,7,1,7,0.00
2013-12-16,78,62,49,36,31,26,43,32,18,29.97,29.85,6,2,6,0.00
2013-12-17,78,63,55,46,37,28,65,41,21,29.91,29.79,11,3,11,0.00
2013-12-18,58,54,51,48,46,42,82,73,64,29.79,29.59,9,3,9,0.00
2013-12-19,63,53,46,46,42,38,85,67,47,29.68,29.49,13,4,13,0.00
2013-12-20,64,50,38,39,32,23,78,53,23,29.77,29.67,10,1,10,0.00
2013-12-21,67,53,40,52,39,24,88,61,45,29.84,29.74,13,3,13,0.00
2013-12-22,70,53,43,50,44,36,88,74,41,30.06,29.84,12,4,12,0.00
2013-12-23,71,54,44,49,44,39,94,72,39,30.13,30.05,11,4,11,0.00
2013-12-24,76,58,47,47,42,37,87,56,33,30.07,29.93,6,2,6,0.00
2013-12-25,77,60,49,44,38,34,57,45,24,30.01,29.93,8,3,8,0.00
2013-12-26,80,62,53,43,37,30,52,40,23,29.98,29.89,5,1,5,0.00
2013-12-27,63,57,54,44,40,29,66,55,32,29.94,29.88,10,2,10,0.00
2013-12-31,68,68,68,39,39,39,34,34,34,29.91,29.85,6,4,6,0.00